createdAt,value
2018-06-02T00:02:08.888Z,62.13
2018-06-02T00:05:11.955Z,61.27
2018-06-02T00:08:15.059Z,62.37
2018-06-02T00:11:18.148Z,64.00
2018-06-02T00:14:21.265Z,67.97
2018-06-02T00:17:24.333Z,70.07
2018-06-02T00:20:27.422Z,74.37
2018-06-02T00:23:30.505Z,78.80
2018-06-02T00:26:33.603Z,73.50
2018-06-02T00:29:36.691Z,81.67
2018-06-02T00:32:39.789Z,79.37
2018-06-02T00:35:43.709Z,73.47
2018-06-02T00:38:46.779Z,63.33
2018-06-02T00:41:49.863Z,66.57
2018-06-02T00:44:52.953Z,62.93
2018-06-02T00:47:56.045Z,62.80
2018-06-02T00:50:59.134Z,64.30
2018-06-02T00:54:02.347Z,65.47
2018-06-02T00:57:06.201Z,60.07
2018-06-02T01:00:09.437Z,61.43
2018-06-02T01:03:13.312Z,59.83
2018-06-02T01:06:16.392Z,64.43
2018-06-02T01:09:19.899Z,67.53
2018-06-02T01:12:23.045Z,63.03
2018-06-02T01:15:26.895Z,63.97
2018-06-02T01:18:29.971Z,63.67
2018-06-02T01:21:33.068Z,55.77
2018-06-02T01:24:36.148Z,58.73
2018-06-02T01:27:39.252Z,51.87
2018-06-02T01:30:42.328Z,52.10
2018-06-02T01:33:45.434Z,56.20
2018-06-02T01:36:48.508Z,46.47
2018-06-02T01:39:51.603Z,57.93
2018-06-02T01:42:54.679Z,53.67
2018-06-02T01:45:57.789Z,50.73
2018-06-02T01:49:00.870Z,55.00
2018-06-02T01:52:03.951Z,52.40
2018-06-02T01:55:07.025Z,52.90
2018-06-02T01:58:10.118Z,55.90
2018-06-02T02:01:13.192Z,54.93
2018-06-02T02:04:16.295Z,56.70
2018-06-02T02:07:19.376Z,56.30
2018-06-02T02:10:22.485Z,56.37
2018-06-02T02:13:25.575Z,55.23
2018-06-02T02:16:28.680Z,55.33
2018-06-02T02:19:31.760Z,54.40
2018-06-02T02:22:34.847Z,58.10
2018-06-02T02:25:37.936Z,55.97
2018-06-02T02:28:41.039Z,62.33
2018-06-02T02:31:44.106Z,59.00
2018-06-02T02:34:47.204Z,61.83
2018-06-02T02:37:50.270Z,61.13
2018-06-02T02:40:53.359Z,65.00
2018-06-02T02:43:56.434Z,68.37
2018-06-02T02:47:00.305Z,67.27
2018-06-02T02:50:03.385Z,65.67
2018-06-02T02:53:06.466Z,60.43
2018-06-02T02:56:09.553Z,67.87
2018-06-02T02:59:12.653Z,65.93
2018-06-02T03:02:15.715Z,58.77
2018-06-02T03:05:18.801Z,62.37
2018-06-02T03:08:21.889Z,51.30
2018-06-02T03:11:24.983Z,53.50
2018-06-02T03:14:28.064Z,60.27
2018-06-02T03:17:31.162Z,62.50
2018-06-02T03:20:34.242Z,59.50
2018-06-02T03:23:37.349Z,56.77
2018-06-02T03:26:40.423Z,62.60
2018-06-02T03:29:43.600Z,54.93
2018-06-02T03:32:46.651Z,58.30
2018-06-02T03:35:49.738Z,57.80
2018-06-02T03:38:52.823Z,59.23
2018-06-02T03:41:55.912Z,58.10
2018-06-02T03:44:58.991Z,53.77
2018-06-02T03:48:02.074Z,53.87
2018-06-02T03:51:05.143Z,53.87
2018-06-02T03:54:08.238Z,58.43
2018-06-02T03:57:11.310Z,56.43
2018-06-02T04:00:14.510Z,58.13
2018-06-02T04:03:18.404Z,56.20
2018-06-02T04:06:21.470Z,50.63
2018-06-02T04:09:24.550Z,49.00
2018-06-02T04:12:27.644Z,50.83
2018-06-02T04:15:30.715Z,51.47
2018-06-02T04:18:33.807Z,52.13
2018-06-02T04:21:36.890Z,52.63
2018-06-02T04:24:39.986Z,57.37
2018-06-02T04:27:43.067Z,48.80
2018-06-02T04:30:46.935Z,55.40
2018-06-02T04:33:50.006Z,50.20
2018-06-02T04:36:53.874Z,53.53
2018-06-02T04:39:56.952Z,55.07
2018-06-02T04:43:00.139Z,58.80
2018-06-02T04:46:03.218Z,57.43
2018-06-02T04:49:06.314Z,57.13
2018-06-02T04:52:09.384Z,50.83
2018-06-02T04:55:12.480Z,53.87
2018-06-02T04:58:15.554Z,55.43
2018-06-02T05:01:18.646Z,50.37
2018-06-02T05:04:21.759Z,48.00
2018-06-02T05:07:25.596Z,50.87
2018-06-02T05:10:28.677Z,52.57
2018-06-02T05:13:31.762Z,52.53
2018-06-02T05:16:34.843Z,46.70
2018-06-02T05:19:37.942Z,49.30
2018-06-02T05:22:41.204Z,51.73
2018-06-02T05:25:44.311Z,54.10
2018-06-02T05:28:47.390Z,51.77
2018-06-02T05:31:50.482Z,53.37
2018-06-02T05:34:53.649Z,51.40
2018-06-02T05:37:56.706Z,50.40
2018-06-02T05:40:59.782Z,51.73
2018-06-02T05:44:03.650Z,53.97
2018-06-02T05:47:06.719Z,54.50
2018-06-02T05:50:10.569Z,51.97
2018-06-02T05:53:13.644Z,50.37
2018-06-02T05:56:16.749Z,55.27
2018-06-02T05:59:19.823Z,52.00
2018-06-02T06:02:22.933Z,50.90
2018-06-02T06:05:26.083Z,52.70
2018-06-02T06:08:29.937Z,52.57
2018-06-02T06:11:33.014Z,50.40
2018-06-02T06:14:36.107Z,48.70
2018-06-02T06:17:39.182Z,54.50
2018-06-02T06:20:42.288Z,50.60
2018-06-02T06:23:45.361Z,48.93
2018-06-02T06:26:48.462Z,50.10
2018-06-02T06:29:51.526Z,49.97
2018-06-02T06:32:54.673Z,47.67
2018-06-02T06:35:57.703Z,48.07
2018-06-02T06:39:00.852Z,48.60
2018-06-02T06:42:03.921Z,55.95
2018-06-02T06:45:07.006Z,51.22
2018-06-02T06:48:10.095Z,48.43
2018-06-02T06:51:13.292Z,44.50
2018-06-02T06:54:16.372Z,43.65
2018-06-02T06:57:19.479Z,46.90
2018-06-02T07:00:22.534Z,39.63
2018-06-02T07:03:25.670Z,46.33
2018-06-02T07:06:28.746Z,38.30
2018-06-02T07:09:31.865Z,36.42
2018-06-02T07:12:35.706Z,36.13
2018-06-02T07:15:38.824Z,31.37
2018-06-02T07:18:41.882Z,31.98
2018-06-02T07:21:45.008Z,31.08
2018-06-02T07:24:48.085Z,31.90
2018-06-02T07:27:51.154Z,30.85
2018-06-02T07:30:54.230Z,32.50
2018-06-02T07:33:57.331Z,34.97
2018-06-02T07:37:00.406Z,32.05
2018-06-02T07:40:04.314Z,35.47
2018-06-02T07:43:07.367Z,37.70
2018-06-02T07:46:10.753Z,38.13
2018-06-02T07:49:13.817Z,36.58
2018-06-02T07:52:16.964Z,36.67
2018-06-02T07:55:20.015Z,37.80
2018-06-02T07:58:23.111Z,36.13
2018-06-02T08:01:26.178Z,35.75
2018-06-02T08:04:29.274Z,38.35
2018-06-02T08:07:32.350Z,37.00
2018-06-02T08:10:35.451Z,37.42
2018-06-02T08:13:38.529Z,34.17
2018-06-02T08:16:41.694Z,42.60
2018-06-02T08:19:44.738Z,39.25
2018-06-02T08:22:47.827Z,37.35
2018-06-02T08:25:50.905Z,38.17
2018-06-02T08:28:54.118Z,36.55
2018-06-02T08:31:57.190Z,35.75
2018-06-02T08:35:00.379Z,38.50
2018-06-02T08:38:03.450Z,36.72
2018-06-02T08:41:06.551Z,38.25
2018-06-02T08:44:09.621Z,39.75
2018-06-02T08:47:12.706Z,37.13
2018-06-02T08:50:15.775Z,37.15
2018-06-02T08:53:19.649Z,39.70
2018-06-02T08:56:22.723Z,56.72
2018-06-02T08:59:25.832Z,38.75
2018-06-02T09:02:28.886Z,38.67
2018-06-02T09:05:31.982Z,35.65
2018-06-02T09:08:35.136Z,36.00
2018-06-02T09:11:38.203Z,36.20
2018-06-02T09:14:41.280Z,34.13
2018-06-02T09:17:44.404Z,35.40
2018-06-02T09:20:48.313Z,35.83
2018-06-02T09:23:51.402Z,34.33
2018-06-02T09:26:54.457Z,34.00
2018-06-02T09:29:58.352Z,33.33
2018-06-02T09:33:01.434Z,30.35
2018-06-02T09:36:04.530Z,31.50
2018-06-02T09:39:07.619Z,31.17
2018-06-02T09:42:10.719Z,31.65
2018-06-02T09:45:14.159Z,32.20
2018-06-02T09:48:17.246Z,31.15
2018-06-02T09:51:20.304Z,29.52
2018-06-02T09:54:23.394Z,29.92
2018-06-02T09:57:26.467Z,34.60
2018-06-02T10:00:30.668Z,34.95
2018-06-02T10:03:33.752Z,37.90
2018-06-02T10:06:36.861Z,38.15
2018-06-02T10:09:39.941Z,40.67
2018-06-02T10:12:43.026Z,40.30
2018-06-02T10:15:46.129Z,41.28
2018-06-02T10:18:49.204Z,43.33
2018-06-02T10:21:52.356Z,42.33
2018-06-02T10:24:55.448Z,38.60
2018-06-02T10:27:58.509Z,41.53
2018-06-02T10:31:01.619Z,39.88
2018-06-02T10:34:05.547Z,42.97
2018-06-02T10:37:08.659Z,39.42
2018-06-02T10:40:11.728Z,40.20
2018-06-02T10:43:14.810Z,39.92
2018-06-02T10:46:17.888Z,44.55
2018-06-02T10:49:21.755Z,42.22
2018-06-02T10:52:24.839Z,38.45
2018-06-02T10:55:27.922Z,37.50
2018-06-02T10:58:31.000Z,38.17
2018-06-02T11:01:34.145Z,39.25
2018-06-02T11:04:37.176Z,38.70
2018-06-02T11:07:40.849Z,39.78
2018-06-02T11:10:43.898Z,37.60
2018-06-02T11:13:47.003Z,36.33
2018-06-02T11:16:50.078Z,35.92
2018-06-02T11:19:53.174Z,40.05
2018-06-02T11:22:56.256Z,35.58
2018-06-02T11:25:59.352Z,36.10
2018-06-02T11:29:02.435Z,35.90
2018-06-02T11:32:05.524Z,37.88
2018-06-02T11:35:08.594Z,39.85
2018-06-02T11:38:11.692Z,39.88
2018-06-02T11:41:14.862Z,41.37
2018-06-02T11:44:18.126Z,38.67
2018-06-02T11:47:21.262Z,42.97
2018-06-02T11:50:24.411Z,39.42
2018-06-02T11:53:27.467Z,42.05
2018-06-02T11:56:30.550Z,39.55
2018-06-02T11:59:33.618Z,38.20
2018-06-02T12:02:36.723Z,40.25
2018-06-02T12:05:39.802Z,39.50
2018-06-02T12:08:42.922Z,40.45
2018-06-02T12:11:46.006Z,36.33
2018-06-02T12:14:49.232Z,35.83
2018-06-02T12:17:52.290Z,34.65
2018-06-02T12:20:55.384Z,29.77
2018-06-02T12:23:58.454Z,29.12
2018-06-02T12:27:01.567Z,27.60
2018-06-02T12:30:04.674Z,27.98
2018-06-02T12:33:07.758Z,29.70
2018-06-02T12:36:11.594Z,30.73
2018-06-02T12:39:14.697Z,30.00
2018-06-02T12:42:17.775Z,27.45
2018-06-02T12:45:20.885Z,27.13
2018-06-02T12:48:23.968Z,28.50
2018-06-02T12:51:27.149Z,28.73
2018-06-02T12:54:30.222Z,27.10
2018-06-02T12:57:33.349Z,30.75
2018-06-02T13:00:36.445Z,28.65
2018-06-02T13:03:39.542Z,26.58
2018-06-02T13:06:42.646Z,27.67
2018-06-02T13:09:45.703Z,27.10
2018-06-02T13:12:48.808Z,28.85
2018-06-02T13:15:51.886Z,28.87
2018-06-02T13:18:54.958Z,28.50
2018-06-02T13:21:58.051Z,31.00
2018-06-02T13:25:01.139Z,29.75
2018-06-02T13:28:04.239Z,29.77
2018-06-02T13:31:07.311Z,28.70
2018-06-02T13:34:10.406Z,28.38
2018-06-02T13:37:13.496Z,27.90
2018-06-02T13:40:16.592Z,26.83
2018-06-02T13:43:19.670Z,27.50
2018-06-02T13:46:22.835Z,27.30
2018-06-02T13:49:25.878Z,24.83
2018-06-02T13:52:28.962Z,25.83
2018-06-02T13:55:32.819Z,26.45
2018-06-02T13:58:35.911Z,25.83
2018-06-02T14:01:39.820Z,26.55
2018-06-02T14:04:42.887Z,26.37
2018-06-02T14:07:46.098Z,24.92
2018-06-02T14:10:49.167Z,25.52
2018-06-02T14:13:52.278Z,33.63
2018-06-02T14:16:55.355Z,26.83
2018-06-02T14:19:58.422Z,25.37
2018-06-02T14:23:01.519Z,26.42
2018-06-02T14:26:04.593Z,26.92
2018-06-02T14:29:07.696Z,25.23
2018-06-02T14:32:11.538Z,26.02
2018-06-02T14:35:14.639Z,25.65
2018-06-02T14:38:17.725Z,26.70
2018-06-02T14:41:20.849Z,24.80
2018-06-02T14:44:23.919Z,25.12
2018-06-02T14:47:27.017Z,27.87
2018-06-02T14:50:30.091Z,26.75
2018-06-02T14:53:33.179Z,26.73
2018-06-02T14:56:36.263Z,28.20
2018-06-02T14:59:39.358Z,24.33
2018-06-02T15:02:42.438Z,24.05
2018-06-02T15:05:45.529Z,24.95
2018-06-02T15:08:48.598Z,24.52
2018-06-02T15:11:52.514Z,24.95
2018-06-02T15:14:55.579Z,25.25
2018-06-02T15:17:58.662Z,26.85
2018-06-02T15:21:01.784Z,27.20
2018-06-02T15:24:04.854Z,27.33
2018-06-02T15:27:07.943Z,25.10
2018-06-02T15:30:11.052Z,27.27
2018-06-02T15:33:14.107Z,26.87
2018-06-02T15:36:17.228Z,27.00
2018-06-02T15:39:21.062Z,27.77
2018-06-02T15:42:24.159Z,26.20
2018-06-02T15:45:27.245Z,26.60
2018-06-02T15:48:30.465Z,25.48
2018-06-02T15:51:33.520Z,25.80
2018-06-02T15:54:36.690Z,24.80
2018-06-02T15:57:39.776Z,28.25
2018-06-02T16:00:42.880Z,24.02
2018-06-02T16:03:45.960Z,23.00
2018-06-02T16:06:49.830Z,22.85
2018-06-02T16:09:52.921Z,25.85
2018-06-02T16:12:56.049Z,29.42
2018-06-02T16:15:59.100Z,23.60
2018-06-02T16:19:02.196Z,24.83
2018-06-02T16:22:05.276Z,42.90
2018-06-02T16:25:08.374Z,48.83
2018-06-02T16:28:11.459Z,27.92
2018-06-02T16:31:14.556Z,22.65
2018-06-02T16:34:17.695Z,24.85
2018-06-02T16:37:20.724Z,23.85
2018-06-02T16:40:23.814Z,27.95
2018-06-02T16:43:26.911Z,25.45
2018-06-02T16:46:29.985Z,26.80
2018-06-02T16:49:33.089Z,26.62
2018-06-02T16:52:36.310Z,25.60
2018-06-02T16:55:40.223Z,26.87
2018-06-02T16:58:43.270Z,29.45
2018-06-02T17:01:46.370Z,26.58
2018-06-02T17:04:49.455Z,27.90
2018-06-02T17:07:52.578Z,29.67
2018-06-02T17:10:55.639Z,35.88
2018-06-02T17:13:58.752Z,27.65
2018-06-02T17:17:02.603Z,27.55
2018-06-02T17:20:05.784Z,29.63
2018-06-02T17:23:09.693Z,29.92
2018-06-02T17:26:12.786Z,30.80
2018-06-02T17:29:15.866Z,27.30
2018-06-02T17:32:18.955Z,29.95
2018-06-02T17:35:22.026Z,28.80
2018-06-02T17:38:25.132Z,29.58
2018-06-02T17:41:28.219Z,34.67
2018-06-02T17:44:31.317Z,33.85
2018-06-02T17:47:34.394Z,32.53
2018-06-02T17:50:37.477Z,31.15
2018-06-02T17:53:40.554Z,33.22
2018-06-02T17:56:44.424Z,31.05
2018-06-02T17:59:48.259Z,32.25
2018-06-02T18:02:52.117Z,34.10
2018-06-02T18:05:55.206Z,31.60
2018-06-02T18:08:58.370Z,29.40
2018-06-02T18:12:01.462Z,65.18
2018-06-02T18:15:04.557Z,37.75
2018-06-02T18:18:07.637Z,36.65
2018-06-02T18:21:11.483Z,37.17
2018-06-02T18:24:14.556Z,35.17
2018-06-02T18:27:17.655Z,45.17
2018-06-02T18:30:20.731Z,36.45
2018-06-02T18:33:24.391Z,44.47
2018-06-02T18:36:27.604Z,48.50
2018-06-02T18:39:30.744Z,47.25
2018-06-02T18:42:33.821Z,38.28
2018-06-02T18:45:37.219Z,41.97
2018-06-02T18:48:40.313Z,35.35
2018-06-02T18:51:43.461Z,203.50
2018-06-02T18:54:46.507Z,37.80
2018-06-02T18:57:49.747Z,37.65
2018-06-02T19:00:52.798Z,33.10
2018-06-02T19:03:55.917Z,35.55
2018-06-02T19:06:59.750Z,37.35
2018-06-02T19:10:02.858Z,33.28
2018-06-02T19:13:05.922Z,33.58
2018-06-02T19:16:09.024Z,32.50
2018-06-02T19:19:12.184Z,36.50
2018-06-02T19:22:15.256Z,33.50
2018-06-02T19:25:18.327Z,35.05
2018-06-02T19:28:21.428Z,30.83
2018-06-02T19:31:24.675Z,32.72
2018-06-02T19:34:27.780Z,35.10
2018-06-02T19:37:30.861Z,31.70
2018-06-02T19:40:33.951Z,29.60
2018-06-02T19:43:37.019Z,39.47
2018-06-02T19:46:40.151Z,37.08
2018-06-02T19:49:43.285Z,39.75
2018-06-02T19:52:46.351Z,33.15
2018-06-02T19:55:49.443Z,32.25
2018-06-02T19:58:52.554Z,34.78
2018-06-02T20:05:14.387Z,32.00
2018-06-02T20:08:18.229Z,33.57
2018-06-02T20:15:09.158Z,32.67
2018-06-02T20:18:17.476Z,29.83
2018-06-02T20:28:36.023Z,27.20
2018-06-02T20:35:31.410Z,27.65
2018-06-02T20:38:51.774Z,28.80
2018-06-02T20:41:56.946Z,30.58
2018-06-02T20:45:00.038Z,29.80
2018-06-02T20:48:33.078Z,29.05
2018-06-02T20:51:36.506Z,27.48
2018-06-02T20:54:40.055Z,27.22
2018-06-02T20:57:43.686Z,30.00
2018-06-02T21:00:47.335Z,28.67
2018-06-02T21:10:36.086Z,29.60
2018-06-02T21:13:39.963Z,30.53
2018-06-02T21:16:48.431Z,33.03
2018-06-02T21:25:40.352Z,32.50
2018-06-02T21:30:52.850Z,34.73
2018-06-02T21:33:56.545Z,37.13
2018-06-02T21:40:34.662Z,33.27
2018-06-02T21:43:38.294Z,35.43
2018-06-02T21:46:41.962Z,35.15
2018-06-02T21:49:45.607Z,34.13
2018-06-02T21:52:49.236Z,35.43
2018-06-02T21:55:53.782Z,34.50
2018-06-02T21:58:57.391Z,35.37
2018-06-02T22:02:01.047Z,38.20
2018-06-02T22:05:04.664Z,40.77
2018-06-02T22:08:08.299Z,41.47
2018-06-02T22:11:11.947Z,39.23
2018-06-02T22:14:15.647Z,38.13
2018-06-02T22:17:19.249Z,43.17
2018-06-02T22:20:22.999Z,41.37
2018-06-02T22:23:26.612Z,43.67
2018-06-02T22:26:30.271Z,43.47
2018-06-02T22:29:33.890Z,46.87
2018-06-02T22:32:37.566Z,47.43
2018-06-02T22:35:41.010Z,45.23
2018-06-02T22:38:44.569Z,47.93
2018-06-02T22:41:47.995Z,47.37
2018-06-02T22:44:51.575Z,44.90
2018-06-02T22:47:55.203Z,45.10
2018-06-02T22:50:58.881Z,41.67
2018-06-02T22:54:02.542Z,47.00
2018-06-02T22:57:06.527Z,46.30
2018-06-02T23:00:12.561Z,45.30
2018-06-02T23:03:16.190Z,48.53
2018-06-02T23:06:19.801Z,46.60
2018-06-02T23:09:23.443Z,51.43
2018-06-02T23:12:27.051Z,52.63
2018-06-02T23:15:30.689Z,51.63
2018-06-02T23:18:34.319Z,53.00
2018-06-02T23:21:37.952Z,52.67
2018-06-02T23:24:41.391Z,52.13
2018-06-02T23:27:44.932Z,54.67
2018-06-02T23:30:48.601Z,53.27
2018-06-02T23:33:52.002Z,53.73
2018-06-02T23:36:55.522Z,57.87
2018-06-02T23:39:59.177Z,56.10
2018-06-02T23:43:02.869Z,59.17
2018-06-02T23:46:06.509Z,54.43
2018-06-02T23:49:10.154Z,55.43
2018-06-02T23:52:13.722Z,59.97
2018-06-02T23:55:17.242Z,58.27
2018-06-02T23:58:20.964Z,63.33
